createdAt,value
2023-07-18T00:02:36.370Z,18.49
2023-07-18T00:05:41.028Z,18.28
2023-07-18T00:08:46.919Z,18.33
2023-07-18T00:11:49.733Z,18.31
2023-07-18T00:14:53.376Z,18.27
2023-07-18T00:17:56.781Z,18.17
2023-07-18T00:20:59.749Z,18.00
2023-07-18T00:24:04.078Z,18.03
2023-07-18T00:27:07.580Z,18.00
2023-07-18T00:30:13.611Z,17.92
2023-07-18T00:33:16.429Z,17.79
2023-07-18T00:36:19.401Z,17.81
2023-07-18T00:39:24.729Z,17.79
2023-07-18T00:42:27.594Z,17.68
2023-07-18T00:45:30.520Z,17.78
2023-07-18T00:48:34.122Z,17.68
2023-07-18T00:51:37.161Z,17.59
2023-07-18T00:54:42.840Z,17.63
2023-07-18T00:57:48.104Z,17.46
2023-07-18T01:00:51.162Z,17.39
2023-07-18T01:03:54.479Z,17.51
2023-07-18T01:06:57.834Z,17.37
2023-07-18T01:10:19.926Z,17.41
2023-07-18T01:13:23.448Z,17.32
2023-07-18T01:16:27.169Z,17.26
2023-07-18T01:19:29.967Z,17.24
2023-07-18T01:22:34.276Z,17.10
2023-07-18T01:25:38.475Z,17.16
2023-07-18T01:28:41.358Z,17.06
2023-07-18T01:31:44.319Z,16.95
2023-07-18T01:34:47.100Z,16.93
2023-07-18T01:37:51.635Z,16.96
2023-07-18T01:40:54.478Z,16.94
2023-07-18T01:43:58.083Z,16.79
2023-07-18T01:47:01.030Z,16.93
2023-07-18T01:50:05.773Z,16.81
2023-07-18T01:53:12.073Z,16.74
2023-07-18T01:56:14.930Z,16.74
2023-07-18T01:59:18.035Z,16.76
2023-07-18T02:02:20.922Z,16.80
2023-07-18T02:05:25.399Z,16.93
2023-07-18T02:08:29.501Z,16.63
2023-07-18T02:11:32.359Z,16.66
2023-07-18T02:14:35.095Z,16.56
2023-07-18T02:17:37.995Z,16.51
2023-07-18T02:20:41.277Z,16.40
2023-07-18T02:23:47.975Z,16.48
2023-07-18T02:26:51.053Z,16.56
2023-07-18T02:29:53.788Z,16.50
2023-07-18T02:32:56.798Z,16.51
2023-07-18T02:35:59.616Z,16.56
2023-07-18T02:39:07.528Z,16.52
2023-07-18T02:42:10.457Z,16.53
2023-07-18T02:45:13.499Z,16.50
2023-07-18T02:48:16.438Z,16.36
2023-07-18T02:51:20.617Z,16.38
2023-07-18T02:54:25.160Z,16.34
2023-07-18T02:57:28.434Z,16.35
2023-07-18T03:00:32.533Z,16.26
2023-07-18T03:03:35.787Z,16.23
2023-07-18T03:06:38.601Z,16.25
2023-07-18T03:09:43.290Z,16.26
2023-07-18T03:12:48.102Z,16.20
2023-07-18T03:15:50.850Z,16.09
2023-07-18T03:18:55.405Z,16.16
2023-07-18T03:21:58.175Z,16.30
2023-07-18T03:25:08.533Z,16.25
2023-07-18T03:28:11.522Z,16.22
2023-07-18T03:31:14.315Z,16.30
2023-07-18T03:34:17.176Z,16.36
2023-07-18T03:37:20.026Z,16.33
2023-07-18T03:40:24.256Z,16.36
2023-07-18T03:43:27.134Z,16.36
2023-07-18T03:46:29.918Z,16.14
2023-07-18T03:49:32.686Z,16.16
2023-07-18T03:52:35.404Z,16.18
2023-07-18T03:55:39.831Z,16.18
2023-07-18T03:58:42.752Z,16.22
2023-07-18T04:01:45.583Z,16.31
2023-07-18T04:04:48.509Z,16.30
2023-07-18T04:07:51.225Z,16.40
2023-07-18T04:10:55.328Z,16.60
2023-07-18T04:13:58.150Z,16.97
2023-07-18T04:17:00.909Z,17.04
2023-07-18T04:20:06.330Z,17.25
2023-07-18T04:23:09.533Z,17.53
2023-07-18T04:26:13.708Z,17.66
2023-07-18T04:29:16.567Z,17.67
2023-07-18T04:32:19.820Z,17.92
2023-07-18T04:35:22.565Z,18.13
2023-07-18T04:38:25.304Z,18.22
2023-07-18T04:41:38.185Z,18.48
2023-07-18T04:44:52.182Z,18.59
2023-07-18T04:47:54.967Z,18.76
2023-07-18T04:51:02.844Z,19.08
2023-07-18T04:54:05.835Z,19.06
2023-07-18T04:57:09.998Z,19.40
2023-07-18T05:00:14.283Z,19.47
2023-07-18T05:03:17.354Z,19.86
2023-07-18T05:06:20.328Z,20.27
2023-07-18T05:09:23.061Z,20.66
2023-07-18T05:12:27.131Z,20.65
2023-07-18T05:15:30.049Z,20.72
2023-07-18T05:18:33.068Z,21.20
2023-07-18T05:21:35.941Z,21.47
2023-07-18T05:24:39.016Z,21.31
2023-07-18T05:27:43.665Z,21.28
2023-07-18T05:30:46.488Z,20.93
2023-07-18T05:33:50.255Z,20.85
2023-07-18T05:36:52.992Z,20.56
2023-07-18T05:39:55.897Z,20.48
2023-07-18T05:42:59.986Z,20.88
2023-07-18T05:46:02.841Z,21.18
2023-07-18T05:49:06.302Z,21.69
2023-07-18T05:52:09.454Z,22.10
2023-07-18T05:55:14.956Z,22.36
2023-07-18T05:58:19.156Z,22.81
2023-07-18T06:01:22.358Z,22.75
2023-07-18T06:04:25.484Z,22.69
2023-07-18T06:07:28.341Z,22.88
2023-07-18T06:10:31.197Z,23.04
2023-07-18T06:13:35.638Z,23.34
2023-07-18T06:16:38.598Z,23.61
2023-07-18T06:19:41.571Z,24.01
2023-07-18T06:22:48.226Z,23.82
2023-07-18T06:25:51.332Z,23.82
2023-07-18T06:28:55.423Z,24.14
2023-07-18T06:31:59.205Z,24.39
2023-07-18T06:35:13.088Z,24.68
2023-07-18T06:38:24.784Z,24.81
2023-07-18T06:44:49.719Z,25.51
2023-07-18T06:47:52.506Z,25.19
2023-07-18T06:50:57.730Z,25.84
2023-07-18T06:54:00.476Z,25.98
2023-07-18T06:57:03.604Z,26.02
2023-07-18T07:00:12.938Z,26.55
2023-07-18T07:03:16.134Z,26.72
2023-07-18T07:06:21.246Z,26.90
2023-07-18T07:09:25.164Z,26.78
2023-07-18T07:12:36.186Z,26.79
2023-07-18T07:15:41.354Z,26.61
2023-07-18T07:18:44.125Z,26.73
2023-07-18T07:21:47.473Z,27.43
2023-07-18T07:24:50.264Z,27.61
2023-07-18T07:27:53.050Z,27.98
2023-07-18T07:30:57.413Z,28.18
2023-07-18T07:34:00.271Z,28.40
2023-07-18T07:37:03.055Z,28.57
2023-07-18T07:40:10.282Z,28.59
2023-07-18T07:43:13.197Z,28.75
2023-07-18T07:46:18.490Z,28.39
2023-07-18T07:49:22.759Z,28.98
2023-07-18T07:52:25.666Z,28.85
2023-07-18T07:55:28.993Z,28.91
2023-07-18T07:58:31.881Z,28.99
2023-07-18T08:01:36.121Z,29.36
2023-07-18T08:04:39.455Z,29.18
2023-07-18T08:07:43.984Z,29.06
2023-07-18T08:10:46.834Z,28.52
2023-07-18T08:13:49.573Z,28.19
2023-07-18T08:16:54.394Z,27.17
2023-07-18T08:19:57.726Z,26.71
2023-07-18T08:23:00.548Z,27.07
2023-07-18T08:26:03.291Z,27.94
2023-07-18T08:29:06.937Z,27.28
2023-07-18T08:32:11.495Z,27.08
2023-07-18T08:35:14.548Z,27.99
2023-07-18T08:38:17.434Z,28.74
2023-07-18T08:41:21.252Z,29.56
2023-07-18T08:44:24.658Z,29.29
2023-07-18T08:47:29.207Z,29.38
2023-07-18T08:50:33.144Z,30.11
2023-07-18T08:53:36.537Z,30.24
2023-07-18T08:56:41.339Z,28.64
2023-07-18T08:59:45.935Z,27.97
2023-07-18T09:02:51.098Z,29.02
2023-07-18T09:05:53.874Z,29.66
2023-07-18T09:08:57.501Z,29.51
2023-07-18T09:12:05.158Z,28.66
2023-07-18T09:15:10.001Z,27.87
2023-07-18T09:18:17.626Z,27.30
2023-07-18T09:21:21.112Z,27.61
2023-07-18T09:24:32.099Z,28.63
2023-07-18T09:27:37.864Z,29.02
2023-07-18T09:30:41.039Z,28.91
2023-07-18T09:33:45.837Z,28.97
2023-07-18T09:36:57.177Z,28.43
2023-07-18T09:40:00.561Z,28.32
2023-07-18T09:43:03.605Z,27.65
2023-07-18T09:46:08.263Z,28.42
2023-07-18T09:49:14.801Z,29.40
2023-07-18T09:52:23.195Z,29.72
2023-07-18T09:55:28.109Z,30.46
2023-07-18T09:58:32.422Z,30.41
2023-07-18T10:01:36.111Z,29.49
2023-07-18T10:04:40.810Z,29.72
2023-07-18T10:07:45.122Z,31.02
2023-07-18T10:11:01.259Z,30.57
2023-07-18T10:14:14.184Z,29.86
2023-07-18T10:17:27.780Z,29.05
2023-07-18T10:20:37.895Z,29.60
2023-07-18T10:23:42.832Z,30.50
2023-07-18T10:26:45.590Z,30.18
2023-07-18T10:30:04.736Z,28.83
2023-07-18T10:33:09.969Z,29.28
2023-07-18T10:36:26.794Z,29.84
2023-07-18T10:39:40.668Z,28.25
2023-07-18T10:42:45.167Z,28.21
2023-07-18T10:45:48.734Z,27.60
2023-07-18T10:48:51.659Z,29.00
2023-07-18T10:55:18.158Z,28.10
2023-07-18T10:58:21.967Z,27.80
2023-07-18T11:01:26.602Z,27.90
2023-07-18T11:04:30.278Z,28.85
2023-07-18T11:07:36.202Z,29.05
2023-07-18T11:10:39.029Z,29.85
2023-07-18T11:13:44.174Z,30.36
2023-07-18T11:16:47.222Z,30.97
2023-07-18T11:19:49.997Z,31.18
2023-07-18T11:22:54.645Z,31.57
2023-07-18T11:25:57.438Z,31.31
2023-07-18T11:29:00.233Z,31.81
2023-07-18T11:32:03.295Z,31.73
2023-07-18T11:35:08.678Z,31.83
2023-07-18T11:38:13.213Z,31.10
2023-07-18T11:41:16.983Z,31.00
2023-07-18T11:44:26.520Z,29.74
2023-07-18T11:47:29.534Z,30.42
2023-07-18T11:50:32.384Z,29.96
2023-07-18T11:53:36.665Z,29.75
2023-07-18T11:56:39.507Z,30.17
2023-07-18T11:59:42.994Z,29.41
2023-07-18T12:02:46.576Z,28.90
2023-07-18T12:05:50.148Z,28.56
2023-07-18T12:08:54.606Z,28.44
2023-07-18T12:11:57.550Z,29.57
2023-07-18T12:15:00.622Z,30.40
2023-07-18T12:18:03.410Z,30.32
2023-07-18T12:21:06.345Z,29.81
2023-07-18T12:24:10.646Z,29.02
2023-07-18T12:27:13.860Z,28.34
2023-07-18T12:30:16.792Z,28.61
2023-07-18T12:33:19.804Z,29.89
2023-07-18T12:36:22.906Z,29.67
2023-07-18T12:39:27.835Z,28.90
2023-07-18T12:42:30.548Z,28.65
2023-07-18T12:45:34.638Z,28.12
2023-07-18T12:48:37.414Z,28.05
2023-07-18T12:51:41.245Z,27.87
2023-07-18T12:54:45.518Z,28.40
2023-07-18T12:57:49.377Z,28.89
2023-07-18T13:00:52.302Z,29.18
2023-07-18T13:03:55.128Z,29.01
2023-07-18T13:06:58.142Z,28.62
2023-07-18T13:10:02.336Z,29.06
2023-07-18T13:13:05.104Z,29.64
2023-07-18T13:16:07.891Z,30.04
2023-07-18T13:19:10.839Z,29.40
2023-07-18T13:22:13.861Z,29.50
2023-07-18T13:25:18.207Z,29.91
2023-07-18T13:28:21.022Z,30.38
2023-07-18T13:31:24.054Z,29.99
2023-07-18T13:34:26.981Z,29.89
2023-07-18T13:37:29.739Z,29.67
2023-07-18T13:40:33.924Z,29.20
2023-07-18T13:43:37.121Z,28.81
2023-07-18T13:46:40.124Z,28.43
2023-07-18T13:52:48.689Z,28.36
2023-07-18T13:55:53.018Z,28.21
2023-07-18T13:58:55.821Z,27.82
2023-07-18T14:01:58.729Z,28.20
2023-07-18T14:05:01.610Z,28.59
2023-07-18T14:08:04.908Z,28.31
2023-07-18T14:11:09.197Z,28.31
2023-07-18T14:14:11.943Z,28.55
2023-07-18T14:17:14.837Z,28.67
2023-07-18T14:20:18.063Z,28.78
2023-07-18T14:23:20.786Z,28.70
2023-07-18T14:26:25.034Z,28.64
2023-07-18T14:29:27.737Z,28.38
2023-07-18T14:32:30.784Z,28.39
2023-07-18T14:35:33.578Z,28.41
2023-07-18T14:38:36.324Z,28.70
2023-07-18T14:41:40.456Z,28.66
2023-07-18T14:44:43.187Z,28.54
2023-07-18T14:47:46.011Z,28.55
2023-07-18T14:50:48.984Z,28.58
2023-07-18T14:53:51.770Z,28.57
2023-07-18T14:56:56.018Z,28.26
2023-07-18T14:59:58.707Z,28.36
2023-07-18T15:03:01.819Z,28.50
2023-07-18T15:06:06.054Z,28.75
2023-07-18T15:09:08.842Z,28.64
2023-07-18T15:12:13.026Z,28.10
2023-07-18T15:15:16.704Z,27.85
2023-07-18T15:18:19.528Z,27.57
2023-07-18T15:21:22.628Z,27.42
2023-07-18T15:24:25.565Z,27.42
2023-07-18T15:27:29.816Z,27.35
2023-07-18T15:30:32.559Z,27.41
2023-07-18T15:33:37.696Z,27.15
2023-07-18T15:36:40.768Z,27.27
2023-07-18T15:39:43.539Z,27.25
2023-07-18T15:42:47.812Z,27.13
2023-07-18T15:45:50.798Z,27.04
2023-07-18T15:48:53.814Z,26.90
2023-07-18T15:51:57.118Z,27.06
2023-07-18T15:54:59.868Z,27.13
2023-07-18T15:58:04.140Z,27.20
2023-07-18T16:01:06.979Z,27.13
2023-07-18T16:04:10.496Z,27.31
2023-07-18T16:07:13.455Z,27.31
2023-07-18T16:10:16.238Z,27.27
2023-07-18T16:13:20.505Z,27.42
2023-07-18T16:16:25.238Z,27.41
2023-07-18T16:19:28.082Z,27.52
2023-07-18T16:22:30.877Z,27.42
2023-07-18T16:25:33.778Z,27.17
2023-07-18T16:28:38.949Z,27.13
2023-07-18T16:31:41.862Z,26.94
2023-07-18T16:34:44.751Z,26.74
2023-07-18T16:37:47.495Z,26.61
2023-07-18T16:40:50.265Z,26.50
2023-07-18T16:43:54.389Z,26.51
2023-07-18T16:46:57.156Z,26.53
2023-07-18T16:50:00.069Z,26.35
2023-07-18T16:53:02.833Z,26.35
2023-07-18T16:56:06.055Z,26.29
2023-07-18T16:59:10.285Z,26.30
2023-07-18T17:02:13.089Z,26.22
2023-07-18T17:05:16.151Z,26.12
2023-07-18T17:08:18.956Z,26.12
2023-07-18T17:11:21.893Z,26.14
2023-07-18T17:14:26.156Z,26.13
2023-07-18T17:17:28.883Z,26.13
2023-07-18T17:20:31.818Z,26.04
2023-07-18T17:23:34.586Z,25.96
2023-07-18T17:26:38.250Z,25.87
2023-07-18T17:29:42.561Z,25.87
2023-07-18T17:32:45.358Z,25.91
2023-07-18T17:35:48.270Z,25.83
2023-07-18T17:38:51.019Z,25.77
2023-07-18T17:41:53.904Z,25.71
2023-07-18T17:44:58.400Z,25.65
2023-07-18T17:48:01.225Z,25.60
2023-07-18T17:51:04.284Z,25.47
2023-07-18T17:54:07.069Z,25.40
2023-07-18T17:57:09.960Z,25.37
2023-07-18T18:00:15.143Z,25.31
2023-07-18T18:03:17.923Z,25.19
2023-07-18T18:06:21.254Z,25.13
2023-07-18T18:09:24.230Z,24.92
2023-07-18T18:12:26.940Z,24.80
2023-07-18T18:15:31.342Z,24.61
2023-07-18T18:18:34.119Z,24.46
2023-07-18T18:21:36.979Z,24.43
2023-07-18T18:24:39.700Z,24.35
2023-07-18T18:27:42.543Z,24.26
2023-07-18T18:30:46.895Z,24.09
2023-07-18T18:33:49.601Z,24.05
2023-07-18T18:36:52.461Z,23.92
2023-07-18T18:39:55.523Z,23.87
2023-07-18T18:42:58.409Z,23.86
2023-07-18T18:46:02.993Z,23.68
2023-07-18T18:49:09.860Z,23.57
2023-07-18T18:52:12.852Z,23.47
2023-07-18T18:55:20.438Z,23.17
2023-07-18T18:58:23.935Z,23.00
2023-07-18T19:01:28.214Z,22.93
2023-07-18T19:04:31.226Z,22.74
2023-07-18T19:07:34.179Z,22.67
2023-07-18T19:10:38.306Z,22.56
2023-07-18T19:13:42.674Z,22.47
2023-07-18T19:16:46.967Z,22.35
2023-07-18T19:19:49.893Z,22.22
2023-07-18T19:22:53.730Z,22.09
2023-07-18T19:25:56.721Z,21.75
2023-07-18T19:28:59.740Z,21.53
2023-07-18T19:32:04.000Z,21.43
2023-07-18T19:35:07.549Z,21.27
2023-07-18T19:38:10.489Z,21.21
2023-07-18T19:41:13.281Z,21.15
2023-07-18T19:44:16.182Z,21.16
2023-07-18T19:47:20.352Z,21.23
2023-07-18T19:50:23.216Z,21.13
2023-07-18T19:53:27.583Z,21.08
2023-07-18T19:56:33.097Z,20.97
2023-07-18T19:59:35.985Z,20.98
2023-07-18T20:02:41.852Z,21.05
2023-07-18T20:05:44.695Z,21.06
2023-07-18T20:08:47.555Z,20.80
2023-07-18T20:11:50.327Z,20.70
2023-07-18T20:14:53.768Z,20.48
2023-07-18T20:17:57.897Z,20.36
2023-07-18T20:21:00.907Z,20.33
2023-07-18T20:24:03.825Z,20.29
2023-07-18T20:27:07.623Z,20.13
2023-07-18T20:30:11.360Z,20.11
2023-07-18T20:33:15.445Z,20.09
2023-07-18T20:36:18.463Z,19.93
2023-07-18T20:39:21.363Z,19.93
2023-07-18T20:42:24.124Z,19.74
2023-07-18T20:45:27.643Z,19.66
2023-07-18T20:48:34.343Z,19.65
2023-07-18T20:51:37.278Z,19.48
2023-07-18T20:54:40.160Z,19.38
2023-07-18T20:57:43.341Z,19.36
2023-07-18T21:00:46.367Z,19.37
2023-07-18T21:03:50.722Z,19.32
2023-07-18T21:06:53.425Z,19.29
2023-07-18T21:09:56.315Z,19.25
2023-07-18T21:12:59.230Z,19.24
2023-07-18T21:16:02.049Z,19.14
2023-07-18T21:19:06.389Z,19.13
2023-07-18T21:22:09.337Z,19.19
2023-07-18T21:25:12.917Z,19.22
2023-07-18T21:28:15.841Z,19.24
2023-07-18T21:31:18.945Z,19.27
2023-07-18T21:34:23.761Z,19.08
2023-07-18T21:37:26.706Z,18.97
2023-07-18T21:40:29.715Z,18.81
2023-07-18T21:43:32.480Z,18.75
2023-07-18T21:46:35.516Z,18.63
2023-07-18T21:49:39.756Z,18.56
2023-07-18T21:52:44.594Z,18.38
2023-07-18T21:55:47.941Z,18.31
2023-07-18T21:58:50.653Z,18.37
2023-07-18T22:01:53.993Z,18.35
2023-07-18T22:04:58.113Z,18.32
2023-07-18T22:08:01.004Z,18.34
2023-07-18T22:11:03.891Z,18.07
2023-07-18T22:14:06.597Z,17.95
2023-07-18T22:17:09.726Z,17.76
2023-07-18T22:20:14.750Z,17.75
2023-07-18T22:23:17.613Z,17.78
2023-07-18T22:26:20.372Z,17.71
2023-07-18T22:29:23.219Z,17.58
2023-07-18T22:32:26.014Z,17.58
2023-07-18T22:35:30.240Z,17.60
2023-07-18T22:38:32.974Z,17.62
2023-07-18T22:41:35.837Z,17.71
2023-07-18T22:44:38.686Z,17.77
2023-07-18T22:47:41.461Z,17.76
2023-07-18T22:50:45.733Z,17.65
2023-07-18T22:53:48.474Z,17.73
2023-07-18T22:56:51.355Z,17.88
2023-07-18T22:59:54.280Z,17.91
2023-07-18T23:02:57.109Z,17.88
2023-07-18T23:06:01.922Z,17.75
2023-07-18T23:09:04.895Z,17.48
2023-07-18T23:12:09.323Z,17.70
2023-07-18T23:15:12.805Z,17.68
2023-07-18T23:18:15.771Z,17.79
2023-07-18T23:21:20.331Z,17.73
2023-07-18T23:24:23.255Z,17.84
2023-07-18T23:27:26.109Z,17.78
2023-07-18T23:30:28.880Z,17.77
2023-07-18T23:33:31.765Z,17.80
2023-07-18T23:36:36.020Z,17.73
2023-07-18T23:39:39.383Z,17.46
2023-07-18T23:42:42.262Z,17.42
2023-07-18T23:45:44.976Z,17.45
2023-07-18T23:48:47.872Z,17.46
2023-07-18T23:51:52.803Z,17.42
2023-07-18T23:54:55.761Z,17.42
2023-07-18T23:57:58.520Z,17.31
